West Haverstraw, New York
Current Conditions -  °F | °C
As of 10:56 AM on Sunday 23 Nov 2014 (Local Time) from KHPN Reporting Station
Scattered Clouds Scattered Clouds  
Wind Chill: 49°   Ceiling: Unl
Heat Index: 49°   Visibility: 10mi
Dew Point: 22°   Wind: 3mph
Humidity: 35%   Direction: NA
Pressure: 30.16"   Gusts: NA
Location:  41.2°N, 73.97°W
Report Text: KHPN 231556Z VRB03KT 10SM SCT070 09/M06 A3016 RMK AO2 SLP217 T00941056
Loading
Personal Weather Stations






























Interactive Weather Map New forecast layout! Learn more

10-Day Weather Forecast

Advertisements
Track Severe Weather on mobile